Time;durP1;ratioP1;P1;durP2;ratioP2;P2;SDS_P1;SDS_P2;PMS_P1;PMS_P2;Temp;Humidity;BMP_temperature;BMP_pressure;BME280_temperature;BME280_humidity;BME280_pressure;Samples;Min_cycle;Max_cycle;Signal;HPM_P1;HPM_P2
2022/09/05 00:00:02;;;;;;;2.90;2.47;;;;;;;;;;4970450;28;20321;-62
2022/09/05 00:02:29;;;;;;;3.03;2.42;;;;;;;;;;4971605;28;20041;-61
2022/09/05 00:05:16;;;;;;;3.83;2.15;;;;;;;;;;4970187;28;20459;-61
2022/09/05 00:08:04;;;;;;;3.55;2.20;;;;;;;;;;4970194;28;20491;-62
2022/09/05 00:10:37;;;;;;;4.85;2.65;;;;;;;;;;4959229;28;20847;-61
2022/09/05 00:13:08;;;;;;;5.95;2.90;;;;;;;;;;4951716;28;20333;-62
2022/09/05 00:15:49;;;;;;;2.80;2.10;;;;;;;;;;4969914;28;20420;-62
2022/09/05 00:18:42;;;;;;;3.60;2.53;;;;;;;;;;4936280;28;20396;-62
2022/09/05 00:21:31;;;;;;;3.45;2.38;;;;;;;;;;4970759;28;20329;-61
2022/09/05 00:24:15;;;;;;;4.03;2.70;;;;;;;;;;4970140;28;20436;-61
2022/09/05 00:27:04;;;;;;;3.92;1.98;;;;;;;;;;4969732;28;20456;-61
2022/09/05 00:29:51;;;;;;;7.70;2.50;;;;;;;;;;4968171;28;20348;-61
2022/09/05 00:32:44;;;;;;;3.13;2.40;;;;;;;;;;4971021;28;20838;-62
2022/09/05 00:35:29;;;;;;;3.50;2.45;;;;;;;;;;4970764;28;20412;-62
2022/09/05 00:37:55;;;;;;;13.95;2.92;;;;;;;;;;4951854;28;20374;-62
2022/09/05 00:40:39;;;;;;;5.40;2.55;;;;;;;;;;4969658;28;20400;-61
2022/09/05 00:43:08;;;;;;;3.95;2.83;;;;;;;;;;4970017;28;20428;-62
2022/09/05 00:45:38;;;;;;;;;;;;;;;;;;4969857;28;20040;-61
2022/09/05 00:48:17;;;;;;;3.00;2.20;;;;;;;;;;4951696;28;19932;-61
2022/09/05 00:50:45;;;;;;;;;;;;;;;;;;4968359;28;20029;-62
2022/09/05 00:53:16;;;;;;;3.35;2.53;;;;;;;;;;4969519;28;19963;-61
2022/09/05 00:56:00;;;;;;;3.20;2.35;;;;;;;;;;4951820;28;20379;-61
2022/09/05 00:58:56;;;;;;;3.17;2.47;;;;;;;;;;4950103;28;20177;-61
2022/09/05 01:02:06;;;;;;;3.20;2.53;;;;;;;;;;4936760;28;20452;-62
2022/09/05 01:04:52;;;;;;;4.07;2.50;;;;;;;;;;4889267;29;20058;-62
2022/09/05 01:07:44;;;;;;;4.05;2.63;;;;;;;;;;4963074;28;20368;-61
2022/09/05 01:10:19;;;;;;;5.00;2.60;;;;;;;;;;4968826;28;20037;-62
2022/09/05 01:12:51;;;;;;;3.03;2.55;;;;;;;;;;4967885;28;20164;-62
2022/09/05 01:15:28;;;;;;;4.20;2.40;;;;;;;;;;4968336;28;20336;-62
2022/09/05 01:17:53;;;;;;;3.10;2.50;;;;;;;;;;4968665;28;20530;-62
2022/09/05 01:20:48;;;;;;;3.38;2.40;;;;;;;;;;4968706;28;20395;-62
2022/09/05 01:23:32;;;;;;;3.33;2.50;;;;;;;;;;4969355;28;20511;-62
2022/09/05 01:26:23;;;;;;;3.72;2.53;;;;;;;;;;4969490;28;20467;-62
2022/09/05 01:28:54;;;;;;;3.45;2.78;;;;;;;;;;4967473;28;20464;-62
2022/09/05 01:31:22;;;;;;;6.57;2.45;;;;;;;;;;4967197;28;20033;-62
2022/09/05 01:34:00;;;;;;;3.53;2.58;;;;;;;;;;4968304;28;20453;-62
2022/09/05 01:36:44;;;;;;;4.30;2.92;;;;;;;;;;4968399;28;20442;-62
2022/09/05 01:39:16;;;;;;;2.50;2.10;;;;;;;;;;4968486;28;20479;-61
2022/09/05 01:42:23;;;;;;;3.53;2.47;;;;;;;;;;4968596;28;20386;-62
2022/09/05 01:44:55;;;;;;;3.58;2.75;;;;;;;;;;4965591;28;20545;-62
2022/09/05 01:48:03;;;;;;;3.15;2.33;;;;;;;;;;4950816;28;20387;-62
2022/09/05 01:50:51;;;;;;;4.97;2.88;;;;;;;;;;4925223;28;20449;-61
2022/09/05 01:53:25;;;;;;;3.72;2.92;;;;;;;;;;4967103;28;20353;-61
2022/09/05 01:56:13;;;;;;;2.83;2.25;;;;;;;;;;4967956;28;20452;-62
2022/09/05 01:59:03;;;;;;;4.88;2.70;;;;;;;;;;4986364;28;20464;-62
2022/09/05 02:01:59;;;;;;;3.25;2.60;;;;;;;;;;4988087;28;20351;-61
2022/09/05 02:04:43;;;;;;;4.03;2.78;;;;;;;;;;4989112;28;20472;-62
2022/09/05 02:07:59;;;;;;;3.47;2.83;;;;;;;;;;4988082;28;20489;-62
2022/09/05 02:10:43;;;;;;;5.22;2.85;;;;;;;;;;4969998;28;20328;-62
2022/09/05 02:13:46;;;;;;;4.93;2.95;;;;;;;;;;4987699;28;20448;-62
2022/09/05 02:16:33;;;;;;;4.97;3.17;;;;;;;;;;4946032;28;20361;-62
2022/09/05 02:19:07;;;;;;;4.82;3.10;;;;;;;;;;4984629;28;20356;-61
2022/09/05 02:21:34;;;;;;;4.68;2.70;;;;;;;;;;4987741;28;20025;-61
2022/09/05 02:24:33;;;;;;;5.05;3.20;;;;;;;;;;4987517;28;20391;-62
2022/09/05 02:27:21;;;;;;;3.92;2.97;;;;;;;;;;4988018;28;20463;-62
2022/09/05 02:30:13;;;;;;;5.18;3.08;;;;;;;;;;4989479;28;20463;-61
2022/09/05 02:32:57;;;;;;;3.60;2.38;;;;;;;;;;4987503;28;20041;-62
2022/09/05 02:35:51;;;;;;;4.65;2.80;;;;;;;;;;4991339;28;20144;-61
2022/09/05 02:38:21;;;;;;;6.35;3.30;;;;;;;;;;4976513;28;20496;-62
2022/09/05 02:40:57;;;;;;;6.60;3.05;;;;;;;;;;4974138;28;20325;-62
2022/09/05 02:43:42;;;;;;;4.15;2.60;;;;;;;;;;4991365;28;20451;-62
2022/09/05 02:46:14;;;;;;;3.60;2.63;;;;;;;;;;4989945;28;20421;-63
2022/09/05 02:49:12;;;;;;;4.63;3.30;;;;;;;;;;4993665;28;20444;-62
2022/09/05 02:51:58;;;;;;;4.72;2.88;;;;;;;;;;4965746;28;20371;-61
2022/09/05 02:54:37;;;;;;;11.13;2.60;;;;;;;;;;4973494;28;20462;-61
2022/09/05 02:57:13;;;;;;;;;;;;;;;;;;4991403;28;20456;-61
2022/09/05 03:00:12;;;;;;;4.50;2.72;;;;;;;;;;4991052;28;20377;-62
2022/09/05 03:02:55;;;;;;;;;;;;;;;;;;4991415;28;20516;-62
2022/09/05 03:06:05;;;;;;;4.28;2.92;;;;;;;;;;4991099;28;20339;-62
2022/09/05 03:08:39;;;;;;;4.20;2.50;;;;;;;;;;4980265;28;20383;-62
2022/09/05 03:11:43;;;;;;;7.40;3.20;;;;;;;;;;4990838;28;20523;-61
2022/09/05 03:14:09;;;;;;;5.93;3.13;;;;;;;;;;4990944;28;20459;-62
2022/09/05 03:16:41;;;;;;;3.58;2.40;;;;;;;;;;4990621;28;20427;-62
2022/09/05 03:19:45;;;;;;;4.60;2.70;;;;;;;;;;4991156;28;20352;-62
2022/09/05 03:22:19;;;;;;;6.03;2.70;;;;;;;;;;4990830;28;20100;-61
2022/09/05 03:25:15;;;;;;;4.70;2.65;;;;;;;;;;4990476;28;20037;-62
2022/09/05 03:27:46;;;;;;;4.97;3.38;;;;;;;;;;4990824;28;20032;-62
2022/09/05 03:30:20;;;;;;;6.93;2.95;;;;;;;;;;4990546;28;20474;-62
2022/09/05 03:32:59;;;;;;;4.55;3.22;;;;;;;;;;4972472;28;20511;-62
2022/09/05 03:35:40;;;;;;;6.25;3.30;;;;;;;;;;4990910;28;20431;-62
2022/09/05 03:38:24;;;;;;;11.63;3.00;;;;;;;;;;4990413;28;20427;-62
2022/09/05 03:41:37;;;;;;;9.23;3.58;;;;;;;;;;4990352;28;20057;-62
2022/09/05 03:44:37;;;;;;;7.82;3.20;;;;;;;;;;4953427;28;20463;-62
2022/09/05 03:47:08;;;;;;;4.55;3.20;;;;;;;;;;4987731;28;20474;-62
2022/09/05 03:50:12;;;;;;;6.80;3.25;;;;;;;;;;4990130;28;20348;-62
2022/09/05 03:52:40;;;;;;;5.32;2.90;;;;;;;;;;4974500;28;20450;-62
2022/09/05 03:55:18;;;;;;;4.28;2.65;;;;;;;;;;4990227;28;20436;-62
2022/09/05 03:58:05;;;;;;;5.25;3.00;;;;;;;;;;4990992;28;20347;-62
2022/09/05 04:00:35;;;;;;;9.77;3.03;;;;;;;;;;4990040;28;20471;-62
2022/09/05 04:03:21;;;;;;;5.22;3.25;;;;;;;;;;4972170;28;20435;-62
2022/09/05 04:05:52;;;;;;;6.18;3.22;;;;;;;;;;4988647;28;20411;-62
2022/09/05 04:08:35;;;;;;;8.27;3.60;;;;;;;;;;4989733;28;20394;-62
2022/09/05 04:11:00;;;;;;;6.05;3.17;;;;;;;;;;4971730;28;20448;-61
2022/09/05 04:13:50;;;;;;;5.63;3.50;;;;;;;;;;4989520;28;20329;-63
2022/09/05 04:16:30;;;;;;;4.78;3.38;;;;;;;;;;4989640;28;20094;-62
2022/09/05 04:19:19;;;;;;;5.63;3.58;;;;;;;;;;4990171;28;20327;-66
2022/09/05 04:22:10;;;;;;;5.20;3.40;;;;;;;;;;4989999;28;20447;-62
2022/09/05 04:24:43;;;;;;;5.68;3.58;;;;;;;;;;4970270;28;20531;-62
2022/09/05 04:27:47;;;;;;;6.57;3.55;;;;;;;;;;4990126;28;20481;-62
2022/09/05 04:30:40;;;;;;;5.38;3.85;;;;;;;;;;4989772;28;20028;-62
2022/09/05 04:33:28;;;;;;;7.80;4.05;;;;;;;;;;4989384;28;20390;-62
2022/09/05 04:36:17;;;;;;;7.22;4.32;;;;;;;;;;4989826;28;20120;-62
2022/09/05 04:38:43;;;;;;;7.85;4.03;;;;;;;;;;4972327;28;20432;-62
2022/09/05 04:41:22;;;;;;;5.13;3.65;;;;;;;;;;4991046;28;20352;-62
2022/09/05 04:43:51;;;;;;;7.38;4.30;;;;;;;;;;4989741;28;20025;-62
2022/09/05 04:46:32;;;;;;;8.48;4.00;;;;;;;;;;4990245;28;20408;-62
2022/09/05 04:49:21;;;;;;;7.47;3.85;;;;;;;;;;4989202;28;20064;-62
2022/09/05 04:51:50;;;;;;;7.40;4.13;;;;;;;;;;4971012;28;20321;-62
2022/09/05 04:54:33;;;;;;;8.15;4.10;;;;;;;;;;4989998;28;20363;-62
2022/09/05 04:57:29;;;;;;;8.00;4.10;;;;;;;;;;4970823;28;20049;-62
2022/09/05 05:00:33;;;;;;;5.95;3.85;;;;;;;;;;4971028;28;20321;-62
2022/09/05 05:03:01;;;;;;;6.47;3.55;;;;;;;;;;4967761;28;20547;-62
2022/09/05 05:05:50;;;;;;;9.52;4.53;;;;;;;;;;4970935;28;20418;-62
2022/09/05 05:08:31;;;;;;;7.63;3.90;;;;;;;;;;4988810;28;20049;-62
2022/09/05 05:11:01;;;;;;;9.30;3.97;;;;;;;;;;4987743;28;20343;-62
2022/09/05 05:13:32;;;;;;;6.80;3.78;;;;;;;;;;4972147;28;20340;-62
2022/09/05 05:16:04;;;;;;;7.60;4.10;;;;;;;;;;4987392;28;20408;-62
2022/09/05 05:18:37;;;;;;;5.55;3.80;;;;;;;;;;4989055;28;20474;-62
2022/09/05 05:21:15;;;;;;;6.88;4.25;;;;;;;;;;4988677;28;20432;-62
2022/09/05 05:23:45;;;;;;;5.75;3.22;;;;;;;;;;4971099;28;20029;-62
2022/09/05 05:26:42;;;;;;;14.82;5.00;;;;;;;;;;4972138;28;20017;-62
2022/09/05 05:29:15;;;;;;;7.93;3.78;;;;;;;;;;4987967;28;20351;-62
2022/09/05 05:31:52;;;;;;;5.43;3.78;;;;;;;;;;4971400;28;20048;-62
2022/09/05 05:34:28;;;;;;;4.03;3.28;;;;;;;;;;4970496;28;20427;-62
2022/09/05 05:37:17;;;;;;;8.55;3.35;;;;;;;;;;4970447;28;20416;-62
2022/09/05 05:39:47;;;;;;;6.15;4.07;;;;;;;;;;4968105;28;20072;-62
2022/09/05 05:42:20;;;;;;;7.07;3.15;;;;;;;;;;4971775;28;20124;-62
2022/09/05 05:44:51;;;;;;;5.57;3.13;;;;;;;;;;4988287;28;20182;-62
2022/09/05 05:47:43;;;;;;;8.50;3.55;;;;;;;;;;4988187;28;20390;-62
2022/09/05 05:50:39;;;;;;;5.00;3.25;;;;;;;;;;4968681;28;20452;-62
2022/09/05 05:53:10;;;;;;;5.50;2.85;;;;;;;;;;4986717;28;20418;-62
2022/09/05 05:55:48;;;;;;;7.20;3.22;;;;;;;;;;4990300;28;20347;-62
2022/09/05 05:58:32;;;;;;;5.32;3.40;;;;;;;;;;4987790;28;20539;-62
2022/09/05 06:01:17;;;;;;;5.28;3.22;;;;;;;;;;4988025;28;20398;-62
2022/09/05 06:04:05;;;;;;;5.35;3.30;;;;;;;;;;4980857;28;20510;-62
2022/09/05 06:06:55;;;;;;;5.55;3.22;;;;;;;;;;4988114;28;20041;-62
2022/09/05 06:09:42;;;;;;;6.57;3.55;;;;;;;;;;4970991;28;20107;-62
2022/09/05 06:12:29;;;;;;;7.68;3.50;;;;;;;;;;4987950;28;20393;-62
2022/09/05 06:15:20;;;;;;;5.88;3.38;;;;;;;;;;4988426;28;20476;-62
2022/09/05 06:18:07;;;;;;;6.50;3.17;;;;;;;;;;4987867;28;20383;-62
2022/09/05 06:20:41;;;;;;;4.22;2.85;;;;;;;;;;4988107;28;20041;-62
2022/09/05 06:23:22;;;;;;;4.18;2.88;;;;;;;;;;4987945;28;20174;-62
2022/09/05 06:25:54;;;;;;;4.07;2.97;;;;;;;;;;4987782;28;20344;-62
2022/09/05 06:28:32;;;;;;;6.00;3.42;;;;;;;;;;4986313;28;20467;-62
2022/09/05 06:31:13;;;;;;;6.60;3.95;;;;;;;;;;4988529;28;20572;-62
2022/09/05 06:34:05;;;;;;;3.63;2.70;;;;;;;;;;4969868;28;20398;-62
2022/09/05 06:36:52;;;;;;;5.97;3.10;;;;;;;;;;4970099;28;20511;-62
2022/09/05 06:39:52;;;;;;;8.40;3.20;;;;;;;;;;4988000;28;20065;-61
2022/09/05 06:42:32;;;;;;;5.53;3.40;;;;;;;;;;4987712;28;20355;-62
2022/09/05 06:45:06;;;;;;;6.88;3.70;;;;;;;;;;4969855;28;20452;-62
2022/09/05 06:47:34;;;;;;;7.93;3.78;;;;;;;;;;4986364;28;20429;-62
2022/09/05 06:50:13;;;;;;;4.57;3.08;;;;;;;;;;4969853;28;20343;-62
2022/09/05 06:53:15;;;;;;;6.45;3.03;;;;;;;;;;4987683;28;20040;-62
2022/09/05 06:56:05;;;;;;;5.05;2.97;;;;;;;;;;4987597;28;20029;-62
2022/09/05 06:58:40;;;;;;;6.50;3.17;;;;;;;;;;4968054;28;20368;-62
2022/09/05 07:01:07;;;;;;;8.20;3.28;;;;;;;;;;4968000;28;20029;-61
2022/09/05 07:04:11;;;;;;;4.38;3.00;;;;;;;;;;4969853;28;20376;-62
2022/09/05 07:06:57;;;;;;;4.28;2.80;;;;;;;;;;4967510;28;20041;-62
2022/09/05 07:09:56;;;;;;;4.68;2.95;;;;;;;;;;4967997;28;20084;-62
2022/09/05 07:12:33;;;;;;;5.38;2.80;;;;;;;;;;4968126;28;20460;-61
2022/09/05 07:15:09;;;;;;;8.73;3.10;;;;;;;;;;4967999;28;20348;-62
2022/09/05 07:17:56;;;;;;;7.53;3.08;;;;;;;;;;4962065;28;20490;-62
2022/09/05 07:20:34;;;;;;;8.68;3.88;;;;;;;;;;4968533;28;20529;-62
2022/09/05 07:23:32;;;;;;;5.43;2.73;;;;;;;;;;4971006;28;20459;-62
2022/09/05 07:25:57;;;;;;;5.25;2.53;;;;;;;;;;4972307;28;20542;-62
2022/09/05 07:28:23;;;;;;;6.05;2.92;;;;;;;;;;4971937;28;20408;-62
2022/09/05 07:30:51;;;;;;;5.32;2.90;;;;;;;;;;4971316;28;20333;-62
2022/09/05 07:33:24;;;;;;;5.13;3.17;;;;;;;;;;4969537;28;20037;-62
2022/09/05 07:35:50;;;;;;;9.18;3.40;;;;;;;;;;4970777;28;20336;-62
2022/09/05 07:38:29;;;;;;;4.53;2.80;;;;;;;;;;4953372;28;20033;-62
2022/09/05 07:40:59;;;;;;;4.53;2.28;;;;;;;;;;4953709;28;20436;-62
2022/09/05 07:43:29;;;;;;;5.88;2.80;;;;;;;;;;4971120;28;20460;-62
2022/09/05 07:46:30;;;;;;;7.43;3.10;;;;;;;;;;4969961;28;20436;-62
2022/09/05 07:48:59;;;;;;;5.47;2.70;;;;;;;;;;4946366;28;20379;-62
2022/09/05 07:51:27;;;;;;;4.80;2.60;;;;;;;;;;4970876;28;20022;-62
2022/09/05 07:53:55;;;;;;;3.92;2.40;;;;;;;;;;4970787;28;20404;-62
2022/09/05 07:56:52;;;;;;;3.17;2.28;;;;;;;;;;4972035;28;20474;-62
2022/09/05 07:59:19;;;;;;;3.67;2.08;;;;;;;;;;4990610;28;20624;-62
2022/09/05 08:01:46;;;;;;;5.22;2.38;;;;;;;;;;4992454;28;20424;-62
2022/09/05 08:04:27;;;;;;;4.60;2.38;;;;;;;;;;4990234;28;20098;-62
2022/09/05 08:06:55;;;;;;;4.57;2.40;;;;;;;;;;4972166;28;20408;-62
2022/09/05 08:09:33;;;;;;;4.27;2.50;;;;;;;;;;4990162;28;20443;-62
2022/09/05 08:12:02;;;;;;;5.18;2.53;;;;;;;;;;4973210;28;20474;-62
2022/09/05 08:14:42;;;;;;;3.58;2.40;;;;;;;;;;4972354;28;20375;-62
2022/09/05 08:17:12;;;;;;;4.03;2.20;;;;;;;;;;4989961;28;20339;-62
2022/09/05 08:19:54;;;;;;;3.28;2.33;;;;;;;;;;4990020;28;20325;-62
2022/09/05 08:22:22;;;;;;;2.97;2.10;;;;;;;;;;4990413;28;20032;-62
2022/09/05 08:24:55;;;;;;;3.60;2.40;;;;;;;;;;4972273;28;20071;-62
2022/09/05 08:27:24;;;;;;;10.45;2.13;;;;;;;;;;4972101;28;20432;-62
2022/09/05 08:29:52;;;;;;;;;;;;;;;;;;4990624;28;20518;-62
2022/09/05 08:32:27;;;;;;;5.15;2.28;;;;;;;;;;4971660;28;20327;-62
2022/09/05 08:35:02;;;;;;;4.43;2.20;;;;;;;;;;4989691;28;20383;-62
2022/09/05 08:37:30;;;;;;;2.90;1.95;;;;;;;;;;4971673;28;20356;-63
2022/09/05 08:40:06;;;;;;;2.80;1.98;;;;;;;;;;4971713;28;20432;-62
2022/09/05 08:42:47;;;;;;;2.38;1.98;;;;;;;;;;4971748;28;20435;-62
2022/09/05 08:46:10;;;;;;;2.70;2.00;;;;;;;;;;4989875;28;20029;-62
2022/09/05 08:48:35;;;;;;;3.10;2.15;;;;;;;;;;4948088;28;20481;-62
2022/09/05 08:51:08;;;;;;;2.72;2.20;;;;;;;;;;4947902;28;20552;-62
2022/09/05 08:53:45;;;;;;;5.07;1.90;;;;;;;;;;4952286;28;20436;-62
2022/09/05 08:56:16;;;;;;;6.80;2.33;;;;;;;;;;4989069;28;20103;-62
2022/09/05 08:59:09;;;;;;;3.25;2.38;;;;;;;;;;4971598;28;20428;-62
2022/09/05 09:02:02;;;;;;;4.07;1.95;;;;;;;;;;4990116;28;20533;-61
2022/09/05 09:04:55;;;;;;;4.57;1.90;;;;;;;;;;4989520;28;20361;-62
2022/09/05 09:08:12;;;;;;;3.80;2.08;;;;;;;;;;4989939;28;20436;-62
2022/09/05 09:10:58;;;;;;;2.70;1.95;;;;;;;;;;4932013;28;20531;-62
2022/09/05 09:13:51;;;;;;;3.67;1.75;;;;;;;;;;4972109;28;20422;-62
2022/09/05 09:16:35;;;;;;;3.55;2.03;;;;;;;;;;4988191;28;20290;-62
2022/09/05 09:19:33;;;;;;;2.92;2.10;;;;;;;;;;4989863;28;20348;-62
2022/09/05 09:22:27;;;;;;;2.85;1.98;;;;;;;;;;4983469;28;20356;-62
2022/09/05 09:25:06;;;;;;;2.70;1.77;;;;;;;;;;4952629;28;20360;-62
2022/09/05 09:27:44;;;;;;;3.13;2.42;;;;;;;;;;4986592;28;20482;-62
2022/09/05 09:30:11;;;;;;;3.22;2.10;;;;;;;;;;4990509;28;20367;-62
2022/09/05 09:32:45;;;;;;;2.40;1.85;;;;;;;;;;4971323;28;20352;-62
2022/09/05 09:35:16;;;;;;;2.55;1.85;;;;;;;;;;4989590;28;20029;-62
2022/09/05 09:37:57;;;;;;;3.70;1.70;;;;;;;;;;4988809;28;20040;-62
2022/09/05 09:41:03;;;;;;;4.53;2.00;;;;;;;;;;4989324;28;20051;-62
2022/09/05 09:43:53;;;;;;;7.28;2.08;;;;;;;;;;4927958;28;20486;-62
2022/09/05 09:46:37;;;;;;;2.72;1.98;;;;;;;;;;4986212;28;20506;-62
2022/09/05 09:49:09;;;;;;;3.85;2.35;;;;;;;;;;4989140;28;20513;-62
2022/09/05 09:51:44;;;;;;;2.90;1.77;;;;;;;;;;4989422;28;20456;-61
2022/09/05 09:54:47;;;;;;;3.08;1.50;;;;;;;;;;4988886;28;20393;-62
2022/09/05 09:57:23;;;;;;;2.35;1.65;;;;;;;;;;4988663;28;20491;-62
2022/09/05 10:00:01;;;;;;;2.58;2.05;;;;;;;;;;4989131;28;20533;-62
2022/09/05 10:02:51;;;;;;;2.53;1.70;;;;;;;;;;4972411;28;20513;-62
2022/09/05 10:05:42;;;;;;;6.47;2.28;;;;;;;;;;4988544;28;20332;-62
2022/09/05 10:08:13;;;;;;;3.00;1.73;;;;;;;;;;4988015;28;20534;-62
2022/09/05 10:11:04;;;;;;;6.13;2.03;;;;;;;;;;4988551;28;20103;-63
2022/09/05 10:13:58;;;;;;;5.50;2.05;;;;;;;;;;4969149;28;20044;-62
2022/09/05 10:16:32;;;;;;;3.83;2.55;;;;;;;;;;4990405;28;20328;-62
2022/09/05 10:19:12;;;;;;;2.53;1.70;;;;;;;;;;4988868;28;20440;-61
2022/09/05 10:21:37;;;;;;;2.35;1.70;;;;;;;;;;4989145;28;20432;-63
2022/09/05 10:24:52;;;;;;;3.03;1.63;;;;;;;;;;4988181;28;20495;-62
2022/09/05 10:27:23;;;;;;;2.90;2.00;;;;;;;;;;4972307;28;20438;-62
2022/09/05 10:30:10;;;;;;;2.72;1.70;;;;;;;;;;4987159;28;20387;-62
2022/09/05 10:32:55;;;;;;;2.70;2.23;;;;;;;;;;4987610;28;20436;-61
2022/09/05 10:35:50;;;;;;;3.85;1.98;;;;;;;;;;4990037;28;20363;-62
2022/09/05 10:38:31;;;;;;;2.88;1.90;;;;;;;;;;4969588;28;20384;-62
2022/09/05 10:41:05;;;;;;;2.95;1.83;;;;;;;;;;4969971;28;20349;-62
2022/09/05 10:43:32;;;;;;;2.97;1.90;;;;;;;;;;4970496;28;20051;-62
2022/09/05 10:45:59;;;;;;;3.22;2.22;;;;;;;;;;4969804;28;20317;-62
2022/09/05 10:48:33;;;;;;;3.42;1.90;;;;;;;;;;4987935;28;20336;-63
2022/09/05 10:51:08;;;;;;;4.80;2.17;;;;;;;;;;4988794;28;20459;-62
2022/09/05 10:53:51;;;;;;;2.42;1.83;;;;;;;;;;4970773;28;20100;-62
2022/09/05 10:56:21;;;;;;;5.25;1.70;;;;;;;;;;4990169;28;20043;-62
2022/09/05 10:59:00;;;;;;;2.78;1.90;;;;;;;;;;4991506;28;20065;-62
2022/09/05 11:01:28;;;;;;;;;;;;;;;;;;4991759;28;20451;-63
2022/09/05 11:04:03;;;;;;;1.63;1.30;;;;;;;;;;4991612;28;20290;-62
2022/09/05 11:06:52;;;;;;;3.47;1.98;;;;;;;;;;4991785;28;20331;-62
2022/09/05 11:09:39;;;;;;;4.20;1.92;;;;;;;;;;4986126;28;20337;-62
2022/09/05 11:12:18;;;;;;;2.72;1.77;;;;;;;;;;4991455;28;20512;-62
2022/09/05 11:14:52;;;;;;;6.35;1.77;;;;;;;;;;4990084;28;20459;-62
2022/09/05 11:17:43;;;;;;;2.95;1.67;;;;;;;;;;4973924;28;20052;-62
2022/09/05 11:20:43;;;;;;;2.60;1.70;;;;;;;;;;4990919;28;20510;-62
2022/09/05 11:23:24;;;;;;;4.88;1.75;;;;;;;;;;4991234;28;20466;-62
2022/09/05 11:25:59;;;;;;;3.38;1.63;;;;;;;;;;4991155;28;20444;-63
2022/09/05 11:29:08;;;;;;;1.90;1.55;;;;;;;;;;4973780;28;20021;-63
2022/09/05 11:32:02;;;;;;;1.73;1.50;;;;;;;;;;4980287;28;20352;-63
2022/09/05 11:34:48;;;;;;;2.67;1.60;;;;;;;;;;4991766;28;20068;-64
2022/09/05 11:37:53;;;;;;;3.53;1.45;;;;;;;;;;4984003;28;20420;-62
2022/09/05 11:40:34;;;;;;;2.72;1.45;;;;;;;;;;4990868;28;20464;-63
2022/09/05 11:43:08;;;;;;;2.63;1.38;;;;;;;;;;4989273;28;20024;-63
2022/09/05 11:45:36;;;;;;;2.90;1.70;;;;;;;;;;4990590;28;20033;-63
2022/09/05 11:48:26;;;;;;;2.53;1.60;;;;;;;;;;4991029;28;20498;-62
2022/09/05 11:51:32;;;;;;;2.10;1.50;;;;;;;;;;4990523;28;20399;-62
2022/09/05 11:54:18;;;;;;;4.32;1.50;;;;;;;;;;4972556;28;20474;-63
2022/09/05 11:57:08;;;;;;;3.13;1.85;;;;;;;;;;4989091;28;20573;-62
2022/09/05 12:00:02;;;;;;;2.95;1.88;;;;;;;;;;4990701;28;20518;-62
2022/09/05 12:03:05;;;;;;;7.22;2.10;;;;;;;;;;4989837;28;20348;-62
2022/09/05 12:06:00;;;;;;;2.17;1.42;;;;;;;;;;4990597;28;20399;-63
2022/09/05 12:08:53;;;;;;;2.85;1.60;;;;;;;;;;4991136;28;20450;-62
2022/09/05 12:12:01;;;;;;;2.20;1.50;;;;;;;;;;4990193;28;20444;-63
2022/09/05 12:14:36;;;;;;;6.50;1.63;;;;;;;;;;4990769;28;20348;-62
2022/09/05 12:17:24;;;;;;;3.67;1.70;;;;;;;;;;4988967;28;20455;-63
2022/09/05 12:19:59;;;;;;;3.53;1.45;;;;;;;;;;4988845;28;20464;-62
2022/09/05 12:22:30;;;;;;;2.80;1.90;;;;;;;;;;4990041;28;20033;-63
2022/09/05 12:25:11;;;;;;;2.72;1.88;;;;;;;;;;4990671;28;20329;-62
2022/09/05 12:27:37;;;;;;;6.30;1.50;;;;;;;;;;4989994;28;20526;-63
2022/09/05 12:30:08;;;;;;;3.78;1.55;;;;;;;;;;4972059;28;20399;-63
2022/09/05 12:32:47;;;;;;;3.55;1.50;;;;;;;;;;4972259;28;20523;-63
2022/09/05 12:35:21;;;;;;;1.92;1.42;;;;;;;;;;4990696;28;20021;-62
2022/09/05 12:37:51;;;;;;;1.85;1.38;;;;;;;;;;4989645;28;20513;-63
2022/09/05 12:40:27;;;;;;;3.17;1.75;;;;;;;;;;4990932;28;20049;-63
2022/09/05 12:43:08;;;;;;;3.05;1.67;;;;;;;;;;4971681;28;20364;-63
2022/09/05 12:45:44;;;;;;;4.03;1.50;;;;;;;;;;4972928;28;20309;-62
2022/09/05 12:48:14;;;;;;;6.32;1.95;;;;;;;;;;4988110;28;20476;-62
2022/09/05 12:50:53;;;;;;;2.85;1.65;;;;;;;;;;4991397;28;20676;-62
2022/09/05 12:53:19;;;;;;;2.45;1.50;;;;;;;;;;4989593;28;20515;-62
2022/09/05 12:55:57;;;;;;;3.15;1.60;;;;;;;;;;4989901;28;20355;-62
2022/09/05 12:58:34;;;;;;;2.67;1.38;;;;;;;;;;4987904;28;20041;-63
2022/09/05 13:01:11;;;;;;;2.70;1.60;;;;;;;;;;4971776;28;20040;-63
2022/09/05 13:03:46;;;;;;;3.63;1.83;;;;;;;;;;4989831;28;20463;-62
2022/09/05 13:06:20;;;;;;;2.05;1.52;;;;;;;;;;4971588;28;20436;-62
2022/09/05 13:08:48;;;;;;;2.90;1.95;;;;;;;;;;4971086;28;20436;-62
2022/09/05 13:11:20;;;;;;;3.15;1.80;;;;;;;;;;4989077;28;20374;-63
2022/09/05 13:14:35;;;;;;;6.05;1.98;;;;;;;;;;4971464;28;20505;-62
2022/09/05 13:17:04;;;;;;;3.30;1.60;;;;;;;;;;4979574;28;20470;-62
2022/09/05 13:19:39;;;;;;;2.55;1.55;;;;;;;;;;4971598;28;20367;-62
2022/09/05 13:22:07;;;;;;;2.22;1.58;;;;;;;;;;4987232;28;20428;-63
2022/09/05 13:24:37;;;;;;;3.65;1.50;;;;;;;;;;4989573;28;20025;-62
2022/09/05 13:27:24;;;;;;;2.70;1.63;;;;;;;;;;4988829;28;20513;-62
2022/09/05 13:29:53;;;;;;;2.70;1.75;;;;;;;;;;4988925;28;20451;-62
2022/09/05 13:32:43;;;;;;;2.15;1.73;;;;;;;;;;4970992;28;20454;-62
2022/09/05 13:35:25;;;;;;;1.73;1.38;;;;;;;;;;4987294;28;20025;-63
2022/09/05 13:37:59;;;;;;;2.55;1.40;;;;;;;;;;4988773;28;20474;-62
2022/09/05 13:40:30;;;;;;;3.63;1.65;;;;;;;;;;4989187;28;20436;-62
2022/09/05 13:43:09;;;;;;;5.60;1.75;;;;;;;;;;4970374;28;20363;-62
2022/09/05 13:45:52;;;;;;;3.35;1.80;;;;;;;;;;4988957;28;20343;-62
2022/09/05 13:48:38;;;;;;;2.95;1.52;;;;;;;;;;4988241;28;20482;-62
2022/09/05 13:51:26;;;;;;;1.85;1.52;;;;;;;;;;4971114;28;20477;-63
2022/09/05 13:54:17;;;;;;;2.45;1.52;;;;;;;;;;4988689;28;20462;-63
2022/09/05 13:56:52;;;;;;;2.47;1.80;;;;;;;;;;4987964;28;20411;-62
2022/09/05 13:59:20;;;;;;;3.10;1.63;;;;;;;;;;4988281;28;20348;-62
2022/09/05 14:01:58;;;;;;;2.58;1.67;;;;;;;;;;4970073;28;20455;-62
2022/09/05 14:04:47;;;;;;;4.25;2.00;;;;;;;;;;4987898;28;20413;-63
2022/09/05 14:07:25;;;;;;;3.30;1.77;;;;;;;;;;4970197;28;20470;-62
2022/09/05 14:10:21;;;;;;;3.88;2.05;;;;;;;;;;4988077;28;20431;-62
2022/09/05 14:12:58;;;;;;;3.80;1.80;;;;;;;;;;4988189;28;20422;-62
2022/09/05 14:15:45;;;;;;;2.15;1.48;;;;;;;;;;4970177;28;20460;-62
2022/09/05 14:18:23;;;;;;;3.08;1.95;;;;;;;;;;4987996;28;20355;-63
2022/09/05 14:21:16;;;;;;;2.50;1.67;;;;;;;;;;4949642;28;20455;-62
2022/09/05 14:23:55;;;;;;;2.95;1.65;;;;;;;;;;4972546;28;20517;-62
2022/09/05 14:26:49;;;;;;;2.80;1.63;;;;;;;;;;4987837;28;20041;-62
2022/09/05 14:29:41;;;;;;;4.18;1.63;;;;;;;;;;4970273;28;20529;-63
2022/09/05 14:32:16;;;;;;;2.08;1.27;;;;;;;;;;4992412;28;20391;-62
2022/09/05 14:35:03;;;;;;;3.92;1.52;;;;;;;;;;4993084;28;20363;-62
2022/09/05 14:37:43;;;;;;;2.33;1.75;;;;;;;;;;4992230;28;20037;-62
2022/09/05 14:40:18;;;;;;;2.47;1.60;;;;;;;;;;4992058;28;20440;-62
2022/09/05 14:43:23;;;;;;;3.05;1.60;;;;;;;;;;4990362;28;20467;-62
2022/09/05 14:46:18;;;;;;;2.25;1.65;;;;;;;;;;4970869;28;20136;-62
2022/09/05 14:49:11;;;;;;;2.22;1.60;;;;;;;;;;4991018;28;20037;-62
2022/09/05 14:51:36;;;;;;;8.07;1.75;;;;;;;;;;4991802;28;20451;-62
2022/09/05 14:54:11;;;;;;;7.03;1.60;;;;;;;;;;4991497;28;20037;-62
2022/09/05 14:56:44;;;;;;;4.88;1.98;;;;;;;;;;4991658;28;20731;-63
2022/09/05 14:59:20;;;;;;;4.97;2.13;;;;;;;;;;4991568;28;20463;-62
2022/09/05 15:02:17;;;;;;;3.17;1.67;;;;;;;;;;4993357;28;20443;-62
2022/09/05 15:04:55;;;;;;;3.97;1.77;;;;;;;;;;4974221;28;20052;-62
2022/09/05 15:07:30;;;;;;;6.15;1.80;;;;;;;;;;4973342;28;20451;-62
2022/09/05 15:10:06;;;;;;;6.60;2.15;;;;;;;;;;4973845;28;20048;-62
2022/09/05 15:12:32;;;;;;;3.35;2.00;;;;;;;;;;4991173;28;20462;-62
2022/09/05 15:15:24;;;;;;;4.35;2.28;;;;;;;;;;4992008;28;20363;-62
2022/09/05 15:17:53;;;;;;;4.93;2.35;;;;;;;;;;4986022;28;20444;-62
2022/09/05 15:20:34;;;;;;;5.22;2.55;;;;;;;;;;4991176;28;20394;-62
2022/09/05 15:23:01;;;;;;;4.20;2.53;;;;;;;;;;4992040;28;20427;-62
2022/09/05 15:25:27;;;;;;;4.95;2.53;;;;;;;;;;4991515;28;20423;-62
2022/09/05 15:27:53;;;;;;;6.13;2.53;;;;;;;;;;4973136;28;20478;-62
2022/09/05 15:30:28;;;;;;;5.13;2.45;;;;;;;;;;4991507;28;20436;-62
2022/09/05 15:33:23;;;;;;;5.38;2.20;;;;;;;;;;4990832;28;20379;-62
2022/09/05 15:35:49;;;;;;;4.65;2.63;;;;;;;;;;4982567;28;20507;-62
2022/09/05 15:38:25;;;;;;;5.25;2.58;;;;;;;;;;4990632;28;20510;-62
2022/09/05 15:41:09;;;;;;;5.00;2.25;;;;;;;;;;4992822;28;20339;-62
2022/09/05 15:43:50;;;;;;;3.60;2.28;;;;;;;;;;4990048;28;20444;-62
2022/09/05 15:46:19;;;;;;;7.45;2.80;;;;;;;;;;4991063;28;20459;-62
2022/09/05 15:48:51;;;;;;;4.32;2.63;;;;;;;;;;4990708;28;20047;-63
2022/09/05 15:51:31;;;;;;;4.22;2.33;;;;;;;;;;4990501;28;20498;-62
2022/09/05 15:53:57;;;;;;;5.45;2.13;;;;;;;;;;4972654;28;20432;-62
2022/09/05 15:56:23;;;;;;;5.20;2.42;;;;;;;;;;4972179;28;20444;-62
2022/09/05 15:58:54;;;;;;;6.25;2.50;;;;;;;;;;4991844;28;20452;-62
2022/09/05 16:01:32;;;;;;;6.05;2.10;;;;;;;;;;4990270;28;20351;-62
2022/09/05 16:03:57;;;;;;;3.77;2.10;;;;;;;;;;4990392;28;20428;-61
2022/09/05 16:06:31;;;;;;;5.00;2.40;;;;;;;;;;4972430;28;20714;-62
2022/09/05 16:09:01;;;;;;;3.85;2.00;;;;;;;;;;4972408;28;20317;-62